createdAt,value
2019-04-25T00:00:01.984Z,100.00
2019-04-25T00:02:36.784Z,100.00
2019-04-25T00:05:06.256Z,100.00
2019-04-25T00:07:33.038Z,100.00
2019-04-25T00:10:01.501Z,100.00
2019-04-25T00:12:28.915Z,100.00
2019-04-25T00:14:57.581Z,100.00
2019-04-25T00:17:25.351Z,100.00
2019-04-25T00:19:52.853Z,100.00
2019-04-25T00:22:25.777Z,100.00
2019-04-25T00:25:12.905Z,100.00
2019-04-25T00:27:32.062Z,100.00
2019-04-25T00:29:58.786Z,100.00
2019-04-25T00:32:25.682Z,100.00
2019-04-25T00:34:52.855Z,100.00
2019-04-25T00:37:20.040Z,100.00
2019-04-25T00:39:47.112Z,100.00
2019-04-25T00:42:13.901Z,100.00
2019-04-25T00:44:43.505Z,100.00
2019-04-25T00:47:11.781Z,100.00
2019-04-25T00:49:38.495Z,100.00
2019-04-25T00:52:05.322Z,100.00
2019-04-25T00:54:31.992Z,100.00
2019-04-25T00:56:58.672Z,100.00
2019-04-25T00:59:44.305Z,100.00
2019-04-25T01:02:21.536Z,100.00
2019-04-25T01:04:49.233Z,100.00
2019-04-25T01:07:15.924Z,100.00
2019-04-25T01:09:43.473Z,100.00
2019-04-25T01:12:15.203Z,100.00
2019-04-25T01:14:42.146Z,100.00
2019-04-25T01:17:08.941Z,100.00
2019-04-25T01:19:35.632Z,100.00
2019-04-25T01:22:03.769Z,100.00
2019-04-25T01:24:30.763Z,100.00
2019-04-25T01:26:57.553Z,100.00
2019-04-25T01:29:24.337Z,100.00
2019-04-25T01:31:52.137Z,100.00
2019-04-25T01:34:26.143Z,100.00
2019-04-25T01:37:21.478Z,100.00
2019-04-25T01:39:57.278Z,100.00
2019-04-25T01:42:43.891Z,100.00
2019-04-25T01:45:11.881Z,100.00
2019-04-25T01:47:38.640Z,100.00
2019-04-25T01:50:05.926Z,100.00
2019-04-25T01:52:33.485Z,100.00
2019-04-25T01:55:00.354Z,100.00
2019-04-25T01:57:27.126Z,100.00
2019-04-25T01:59:55.116Z,100.00
2019-04-25T02:02:24.170Z,100.00
2019-04-25T02:04:51.436Z,100.00
2019-04-25T02:07:18.353Z,100.00
2019-04-25T02:09:45.027Z,100.00
2019-04-25T02:12:33.659Z,100.00
2019-04-25T02:15:00.629Z,100.00
2019-04-25T02:17:27.626Z,100.00
2019-04-25T02:19:55.444Z,100.00
2019-04-25T02:22:24.334Z,100.00
2019-04-25T02:24:51.833Z,100.00
2019-04-25T02:27:19.391Z,100.00
2019-04-25T02:29:46.170Z,100.00
2019-04-25T02:32:14.597Z,100.00
2019-04-25T02:34:41.550Z,100.00
2019-04-25T02:37:09.311Z,100.00
2019-04-25T02:39:37.471Z,100.00
2019-04-25T02:42:07.952Z,100.00
2019-04-25T02:44:35.791Z,100.00
2019-04-25T02:47:14.678Z,100.00
2019-04-25T02:49:55.921Z,100.00
2019-04-25T02:52:34.435Z,100.00
2019-04-25T02:55:02.204Z,100.00
2019-04-25T02:57:30.440Z,100.00
2019-04-25T02:59:58.407Z,100.00
2019-04-25T03:02:25.339Z,100.00
2019-04-25T03:04:54.341Z,100.00
2019-04-25T03:07:20.891Z,100.00
2019-04-25T03:09:48.809Z,100.00
2019-04-25T03:12:29.483Z,100.00
2019-04-25T03:14:44.736Z,100.00
2019-04-25T03:17:14.015Z,100.00
2019-04-25T03:20:07.941Z,100.00
2019-04-25T03:22:34.730Z,100.00
2019-04-25T03:25:02.202Z,100.00
2019-04-25T03:27:30.269Z,100.00
2019-04-25T03:29:57.037Z,100.00
2019-04-25T03:32:25.814Z,100.00
2019-04-25T03:34:53.150Z,100.00
2019-04-25T03:37:21.311Z,100.00
2019-04-25T03:39:47.989Z,100.00
2019-04-25T03:42:14.697Z,100.00
2019-04-25T03:44:41.361Z,100.00
2019-04-25T03:47:08.659Z,100.00
2019-04-25T03:49:35.958Z,100.00
2019-04-25T03:52:04.974Z,100.00
2019-04-25T03:54:31.563Z,100.00
2019-04-25T03:56:58.265Z,100.00
2019-04-25T03:59:24.971Z,100.00
2019-04-25T04:01:51.698Z,100.00
2019-04-25T04:04:18.596Z,100.00
2019-04-25T04:06:46.570Z,100.00
2019-04-25T04:09:14.251Z,100.00
2019-04-25T04:11:43.409Z,100.00
2019-04-25T04:14:10.338Z,100.00
2019-04-25T04:16:40.478Z,100.00
2019-04-25T04:19:07.205Z,100.00
2019-04-25T04:21:53.116Z,100.00
2019-04-25T04:24:30.322Z,100.00
2019-04-25T04:27:12.202Z,100.00
2019-04-25T04:29:39.105Z,100.00
2019-04-25T04:32:06.846Z,100.00
2019-04-25T04:34:33.951Z,100.00
2019-04-25T04:37:03.705Z,100.00
2019-04-25T04:39:30.843Z,100.00
2019-04-25T04:41:57.512Z,100.00
2019-04-25T04:44:24.268Z,100.00
2019-04-25T04:46:52.019Z,100.00
2019-04-25T04:49:18.759Z,100.00
2019-04-25T04:51:45.447Z,100.00
2019-04-25T04:54:13.554Z,100.00
2019-04-25T04:56:41.321Z,100.00
2019-04-25T04:59:07.994Z,100.00
2019-04-25T05:01:37.321Z,100.00
2019-04-25T05:04:14.932Z,100.00
2019-04-25T05:06:51.818Z,100.00
2019-04-25T05:09:24.896Z,100.00
2019-04-25T05:11:54.032Z,100.00
2019-04-25T05:14:20.892Z,100.00
2019-04-25T05:16:49.537Z,100.00
2019-04-25T05:19:16.822Z,100.00
2019-04-25T05:21:45.639Z,100.00
2019-04-25T05:24:13.363Z,100.00
2019-04-25T05:26:40.920Z,100.00
2019-04-25T05:29:07.578Z,100.00
2019-04-25T05:31:43.918Z,100.00
2019-04-25T05:34:11.352Z,100.00
2019-04-25T05:36:38.133Z,100.00
2019-04-25T05:39:09.242Z,100.00
2019-04-25T05:41:58.138Z,100.00
2019-04-25T05:44:27.328Z,100.00
2019-04-25T05:46:54.111Z,100.00
2019-04-25T05:49:21.315Z,100.00
2019-04-25T05:51:48.233Z,100.00
2019-04-25T05:54:14.883Z,100.00
2019-04-25T05:56:41.672Z,100.00
2019-04-25T05:59:08.344Z,100.00
2019-04-25T06:01:35.788Z,100.00
2019-04-25T06:04:05.152Z,100.00
2019-04-25T06:06:36.080Z,100.00
2019-04-25T06:09:24.038Z,100.00
2019-04-25T06:12:14.330Z,100.00
2019-04-25T06:14:41.030Z,100.00
2019-04-25T06:17:11.491Z,100.00
2019-04-25T06:19:46.665Z,100.00
2019-04-25T06:22:19.697Z,100.00
2019-04-25T06:24:52.322Z,100.00
2019-04-25T06:27:28.404Z,100.00
2019-04-25T06:30:05.963Z,100.00
2019-04-25T06:32:35.068Z,100.00
2019-04-25T06:35:01.544Z,100.00
2019-04-25T06:37:29.014Z,100.00
2019-04-25T06:39:55.847Z,100.00
2019-04-25T06:42:24.583Z,100.00
2019-04-25T06:45:21.501Z,100.00
2019-04-25T06:48:17.331Z,100.00
2019-04-25T06:50:44.230Z,100.00
2019-04-25T06:53:10.913Z,100.00
2019-04-25T06:55:37.703Z,100.00
2019-04-25T06:58:11.672Z,100.00
2019-04-25T07:00:40.811Z,100.00
2019-04-25T07:03:02.381Z,100.00
2019-04-25T07:05:36.699Z,100.00
2019-04-25T07:07:57.840Z,100.00
2019-04-25T07:10:29.450Z,100.00
2019-04-25T07:12:57.363Z,100.00
2019-04-25T07:15:24.945Z,100.00
2019-04-25T07:17:54.048Z,100.00
2019-04-25T07:20:21.277Z,100.00
2019-04-25T07:22:48.171Z,100.00
2019-04-25T07:25:15.245Z,100.00
2019-04-25T07:28:07.373Z,100.00
2019-04-25T07:30:51.690Z,100.00
2019-04-25T07:33:20.421Z,100.00
2019-04-25T07:35:47.288Z,100.00
2019-04-25T07:38:14.178Z,100.00
2019-04-25T07:40:41.030Z,100.00
2019-04-25T07:43:07.806Z,100.00
2019-04-25T07:45:36.387Z,100.00
2019-04-25T07:48:04.103Z,100.00
2019-04-25T07:50:32.224Z,100.00
2019-04-25T07:53:00.509Z,100.00
2019-04-25T07:55:27.548Z,100.00
2019-04-25T07:57:55.390Z,100.00
2019-04-25T08:00:23.991Z,100.00
2019-04-25T08:02:50.871Z,100.00
2019-04-25T08:05:17.770Z,100.00
2019-04-25T08:07:44.558Z,100.00
2019-04-25T08:10:15.041Z,100.00
2019-04-25T08:12:43.987Z,100.00
2019-04-25T08:15:18.123Z,100.00
2019-04-25T08:18:04.090Z,100.00
2019-04-25T08:20:31.157Z,100.00
2019-04-25T08:22:59.702Z,100.00
2019-04-25T08:25:26.609Z,100.00
2019-04-25T08:27:53.516Z,100.00
2019-04-25T08:30:21.976Z,100.00
2019-04-25T08:32:48.758Z,100.00
2019-04-25T08:35:16.182Z,95.39
2019-04-25T08:37:44.122Z,95.82
2019-04-25T08:40:11.322Z,98.69
2019-04-25T08:42:37.999Z,94.80
2019-04-25T08:45:05.322Z,88.42
2019-04-25T08:47:34.397Z,83.47
2019-04-25T08:50:26.410Z,84.93
2019-04-25T08:52:44.211Z,86.11
2019-04-25T08:55:31.508Z,75.67
2019-04-25T08:58:28.181Z,78.34
2019-04-25T09:01:05.960Z,78.18
2019-04-25T09:03:40.131Z,82.54
2019-04-25T09:06:08.863Z,76.41
2019-04-25T09:08:37.315Z,75.18
2019-04-25T09:11:04.311Z,73.29
2019-04-25T09:13:31.463Z,68.57
2019-04-25T09:15:58.146Z,68.07
2019-04-25T09:18:26.100Z,70.15
2019-04-25T09:20:53.985Z,63.75
2019-04-25T09:23:20.878Z,66.54
2019-04-25T09:25:47.535Z,66.72
2019-04-25T09:28:14.395Z,65.19
2019-04-25T09:30:41.262Z,65.66
2019-04-25T09:33:08.233Z,64.03
2019-04-25T09:35:36.114Z,64.20
2019-04-25T09:38:03.451Z,62.76
2019-04-25T09:40:30.126Z,64.97
2019-04-25T09:42:56.829Z,61.92
2019-04-25T09:45:43.921Z,62.63
2019-04-25T09:48:20.838Z,63.28
2019-04-25T09:50:50.832Z,61.58
2019-04-25T09:53:23.213Z,62.00
2019-04-25T09:56:05.113Z,62.26
2019-04-25T09:58:38.226Z,62.06
2019-04-25T10:01:10.186Z,58.87
2019-04-25T10:03:37.268Z,61.83
2019-04-25T10:06:04.598Z,63.05
2019-04-25T10:08:31.390Z,61.27
2019-04-25T10:10:58.097Z,59.74
2019-04-25T10:13:25.247Z,58.61
2019-04-25T10:16:00.677Z,60.14
2019-04-25T10:18:27.955Z,59.46
2019-04-25T10:20:54.747Z,59.26
2019-04-25T10:23:21.592Z,59.41
2019-04-25T10:25:48.832Z,60.10
2019-04-25T10:28:15.654Z,57.52
2019-04-25T10:30:42.970Z,56.85
2019-04-25T10:33:09.819Z,55.50
2019-04-25T10:35:46.707Z,55.83
2019-04-25T10:38:05.444Z,54.26
2019-04-25T10:40:33.817Z,53.70
2019-04-25T10:43:00.906Z,54.01
2019-04-25T10:45:27.718Z,53.10
2019-04-25T10:47:55.245Z,53.79
2019-04-25T10:50:23.841Z,54.48
2019-04-25T10:52:51.068Z,55.19
2019-04-25T10:55:17.757Z,52.82
2019-04-25T10:57:45.531Z,53.02
2019-04-25T11:00:24.116Z,52.18
2019-04-25T11:02:51.833Z,50.74
2019-04-25T11:05:19.154Z,50.80
2019-04-25T11:07:46.587Z,52.30
2019-04-25T11:10:14.349Z,50.48
2019-04-25T11:12:44.243Z,51.24
2019-04-25T11:15:11.314Z,48.89
2019-04-25T11:17:38.000Z,48.40
2019-04-25T11:20:05.523Z,45.35
2019-04-25T11:22:34.198Z,45.96
2019-04-25T11:25:01.247Z,46.36
2019-04-25T11:27:28.224Z,46.10
2019-04-25T11:30:08.563Z,45.56
2019-04-25T11:32:26.938Z,45.27
2019-04-25T11:34:54.896Z,45.74
2019-04-25T11:37:29.538Z,45.43
2019-04-25T11:40:04.281Z,44.71
2019-04-25T11:42:31.416Z,45.09
2019-04-25T11:44:58.486Z,44.14
2019-04-25T11:47:25.149Z,43.99
2019-04-25T11:49:51.981Z,43.67
2019-04-25T11:52:27.439Z,43.47
2019-04-25T11:54:48.132Z,43.73
2019-04-25T11:57:14.880Z,44.30
2019-04-25T11:59:44.599Z,43.12
2019-04-25T12:02:13.319Z,43.11
2019-04-25T12:04:40.179Z,43.62
2019-04-25T12:07:09.532Z,42.84
2019-04-25T12:09:37.336Z,43.06
2019-04-25T12:12:05.761Z,42.11
2019-04-25T12:14:34.130Z,41.72
2019-04-25T12:17:00.923Z,41.15
2019-04-25T12:19:35.805Z,41.14
2019-04-25T12:21:58.242Z,41.00
2019-04-25T12:24:28.342Z,41.64
2019-04-25T12:26:55.989Z,42.24
2019-04-25T12:29:24.423Z,42.75
2019-04-25T12:31:51.189Z,43.04
2019-04-25T12:34:18.512Z,42.97
2019-04-25T12:36:45.314Z,43.41
2019-04-25T12:39:14.015Z,43.62
2019-04-25T12:41:41.016Z,43.98
2019-04-25T12:44:39.361Z,43.20
2019-04-25T12:47:11.196Z,42.54
2019-04-25T12:49:39.075Z,41.08
2019-04-25T12:52:06.129Z,40.83
2019-04-25T12:54:33.954Z,40.87
2019-04-25T12:57:00.813Z,40.66
2019-04-25T12:59:27.491Z,39.62
2019-04-25T13:01:55.661Z,39.94
2019-04-25T13:04:22.766Z,39.54
2019-04-25T13:06:50.528Z,39.76
2019-04-25T13:09:17.551Z,39.05
2019-04-25T13:11:44.335Z,39.25
2019-04-25T13:14:11.100Z,38.93
2019-04-25T13:16:38.911Z,38.95
2019-04-25T13:19:16.435Z,38.81
2019-04-25T13:21:35.352Z,37.59
2019-04-25T13:24:03.077Z,38.58
2019-04-25T13:26:34.446Z,38.67
2019-04-25T13:29:21.237Z,38.16
2019-04-25T13:32:07.540Z,37.95
2019-04-25T13:34:40.265Z,38.22
2019-04-25T13:37:14.025Z,37.10
2019-04-25T13:39:41.634Z,37.39
2019-04-25T13:42:08.461Z,37.57
2019-04-25T13:44:36.153Z,37.24
2019-04-25T13:47:04.133Z,36.45
2019-04-25T13:49:31.625Z,36.46
2019-04-25T13:51:58.497Z,36.31
2019-04-25T13:54:25.169Z,36.47
2019-04-25T13:56:53.284Z,36.00
2019-04-25T13:59:21.696Z,35.27
2019-04-25T14:01:48.514Z,34.23
2019-04-25T14:04:16.477Z,33.20
2019-04-25T14:06:43.255Z,32.51
2019-04-25T14:09:14.864Z,32.09
2019-04-25T14:11:43.967Z,31.92
2019-04-25T14:14:10.818Z,30.78
2019-04-25T14:17:07.076Z,32.97
2019-04-25T14:19:45.731Z,33.05
2019-04-25T14:22:12.568Z,33.94
2019-04-25T14:24:39.904Z,32.76
2019-04-25T14:27:06.579Z,32.38
2019-04-25T14:29:33.296Z,32.19
2019-04-25T14:32:00.528Z,31.82
2019-04-25T14:34:27.831Z,31.71
2019-04-25T14:36:54.928Z,31.16
2019-04-25T14:39:23.710Z,32.09
2019-04-25T14:41:50.917Z,33.37
2019-04-25T14:44:17.741Z,33.74
2019-04-25T14:46:44.505Z,33.89
2019-04-25T14:49:11.412Z,34.41
2019-04-25T14:51:38.092Z,33.74
2019-04-25T14:54:07.685Z,33.86
2019-04-25T14:56:52.692Z,34.30
2019-04-25T14:59:22.021Z,34.17
2019-04-25T15:01:48.346Z,34.29
2019-04-25T15:04:15.043Z,34.30
2019-04-25T15:06:42.094Z,34.38
2019-04-25T15:09:10.717Z,35.01
2019-04-25T15:11:37.854Z,35.08
2019-04-25T15:14:04.529Z,34.99
2019-04-25T15:16:31.218Z,34.42
2019-04-25T15:18:58.042Z,34.17
2019-04-25T15:21:25.197Z,34.24
2019-04-25T15:24:00.058Z,34.17
2019-04-25T15:26:21.485Z,34.00
2019-04-25T15:28:48.164Z,33.56
2019-04-25T15:31:15.334Z,33.69
2019-04-25T15:33:42.026Z,33.38
2019-04-25T15:36:14.829Z,32.82
2019-04-25T15:38:49.584Z,33.63
2019-04-25T15:41:25.115Z,33.88
2019-04-25T15:44:10.296Z,33.97
2019-04-25T15:46:38.476Z,33.85
2019-04-25T15:49:05.269Z,33.39
2019-04-25T15:51:32.716Z,33.07
2019-04-25T15:54:00.651Z,33.56
2019-04-25T15:56:27.490Z,34.33
2019-04-25T15:58:55.394Z,34.08
2019-04-25T16:01:23.364Z,33.75
2019-04-25T16:03:52.445Z,34.11
2019-04-25T16:06:19.145Z,34.36
2019-04-25T16:08:45.873Z,34.10
2019-04-25T16:11:12.731Z,34.01
2019-04-25T16:13:39.714Z,34.88
2019-04-25T16:16:06.932Z,35.12
2019-04-25T16:18:33.624Z,35.27
2019-04-25T16:21:00.406Z,35.26
2019-04-25T16:23:27.852Z,35.64
2019-04-25T16:25:55.652Z,35.33
2019-04-25T16:28:22.340Z,35.53
2019-04-25T16:30:49.037Z,35.37
2019-04-25T16:33:15.705Z,36.43
2019-04-25T16:35:42.850Z,35.71
2019-04-25T16:38:10.102Z,36.08
2019-04-25T16:40:36.924Z,35.99
2019-04-25T16:43:06.172Z,36.27
2019-04-25T16:45:34.001Z,36.64
2019-04-25T16:48:01.006Z,36.85
2019-04-25T16:50:30.107Z,37.34
2019-04-25T16:52:57.799Z,37.22
2019-04-25T16:55:24.591Z,36.59
2019-04-25T16:57:51.275Z,36.53
2019-04-25T17:00:52.282Z,37.59
2019-04-25T17:03:21.450Z,38.34
2019-04-25T17:05:48.225Z,38.75
2019-04-25T17:08:15.224Z,38.95
2019-04-25T17:10:42.000Z,39.19
2019-04-25T17:13:08.743Z,39.38
2019-04-25T17:15:54.229Z,39.65
2019-04-25T17:18:24.766Z,39.56
2019-04-25T17:21:00.012Z,39.62
2019-04-25T17:23:27.044Z,40.07
2019-04-25T17:25:54.006Z,40.40
2019-04-25T17:28:21.901Z,40.40
2019-04-25T17:30:52.663Z,40.62
2019-04-25T17:33:45.045Z,40.82
2019-04-25T17:36:26.085Z,41.12
2019-04-25T17:39:07.023Z,41.35
2019-04-25T17:41:36.237Z,41.19
2019-04-25T17:44:03.117Z,41.34
2019-04-25T17:46:29.797Z,41.35
2019-04-25T17:48:56.748Z,41.63
2019-04-25T17:51:26.470Z,41.76
2019-04-25T17:53:53.177Z,41.85
2019-04-25T17:56:19.874Z,41.99
2019-04-25T17:58:46.562Z,42.47
2019-04-25T18:01:17.337Z,42.74
2019-04-25T18:03:44.145Z,42.95
2019-04-25T18:06:11.155Z,42.99
2019-04-25T18:08:38.027Z,43.10
2019-04-25T18:11:05.401Z,43.38
2019-04-25T18:13:32.281Z,43.51
2019-04-25T18:16:22.951Z,43.78
2019-04-25T18:19:08.915Z,43.78
2019-04-25T18:21:36.758Z,44.33
2019-04-25T18:24:24.486Z,44.31
2019-04-25T18:26:56.849Z,44.38
2019-04-25T18:29:24.025Z,44.72
2019-04-25T18:31:50.810Z,45.29
2019-04-25T18:34:25.362Z,45.51
2019-04-25T18:37:12.415Z,45.78
2019-04-25T18:39:44.141Z,46.00
2019-04-25T18:42:33.622Z,46.46
2019-04-25T18:45:00.431Z,46.86
2019-04-25T18:47:27.472Z,47.32
2019-04-25T18:49:54.154Z,47.35
2019-04-25T18:52:48.464Z,47.48
2019-04-25T18:55:22.939Z,47.56
2019-04-25T18:57:53.099Z,47.88
2019-04-25T19:00:58.123Z,48.35
2019-04-25T19:03:43.657Z,48.51
2019-04-25T19:06:13.205Z,48.83
2019-04-25T19:08:40.827Z,49.54
2019-04-25T19:11:09.174Z,49.99
2019-04-25T19:13:36.042Z,50.13
2019-04-25T19:16:02.981Z,50.25
2019-04-25T19:18:29.648Z,50.51
2019-04-25T19:20:56.434Z,50.46
2019-04-25T19:23:23.218Z,50.74
2019-04-25T19:25:52.129Z,51.06
2019-04-25T19:28:19.150Z,51.43
2019-04-25T19:30:47.217Z,51.52
2019-04-25T19:33:15.541Z,52.15
2019-04-25T19:35:45.694Z,52.55
2019-04-25T19:38:13.334Z,52.58
2019-04-25T19:40:48.138Z,52.38
2019-04-25T19:43:49.890Z,53.59
2019-04-25T19:46:16.725Z,53.68
2019-04-25T19:48:43.484Z,53.86
2019-04-25T19:51:11.361Z,53.81
2019-04-25T19:53:38.445Z,54.16
2019-04-25T19:56:05.455Z,54.19
2019-04-25T19:58:32.268Z,54.46
2019-04-25T20:01:00.446Z,54.65
2019-04-25T20:03:58.537Z,55.18
2019-04-25T20:06:43.444Z,55.59
2019-04-25T20:09:30.143Z,56.07
2019-04-25T20:11:58.882Z,56.87
2019-04-25T20:14:25.539Z,56.57
2019-04-25T20:16:52.218Z,56.81
2019-04-25T20:19:19.142Z,57.76
2019-04-25T20:21:46.280Z,58.40
2019-04-25T20:24:13.354Z,57.84
2019-04-25T20:26:40.114Z,58.14
2019-04-25T20:29:07.133Z,58.49
2019-04-25T20:31:34.436Z,60.42
2019-04-25T20:34:05.898Z,59.30
2019-04-25T20:36:29.807Z,59.43
2019-04-25T20:38:57.020Z,60.34
2019-04-25T20:41:23.711Z,65.00
2019-04-25T20:43:50.759Z,62.65
2019-04-25T20:46:17.791Z,62.17
2019-04-25T20:48:44.471Z,61.63
2019-04-25T20:51:11.271Z,60.68
2019-04-25T20:53:38.029Z,61.65
2019-04-25T20:56:06.102Z,62.06
2019-04-25T20:58:34.361Z,62.30
2019-04-25T21:01:02.837Z,62.60
2019-04-25T21:03:29.754Z,63.50
2019-04-25T21:06:04.794Z,62.03
2019-04-25T21:08:31.720Z,63.92
2019-04-25T21:10:58.360Z,63.41
2019-04-25T21:13:34.001Z,64.47
2019-04-25T21:16:27.777Z,63.34
2019-04-25T21:19:14.001Z,64.62
2019-04-25T21:21:40.855Z,64.51
2019-04-25T21:24:08.013Z,66.86
2019-04-25T21:26:36.014Z,65.93
2019-04-25T21:29:03.027Z,66.48
2019-04-25T21:31:29.730Z,65.49
2019-04-25T21:33:57.328Z,67.35
2019-04-25T21:36:24.458Z,66.80
2019-04-25T21:38:51.594Z,67.07
2019-04-25T21:41:37.953Z,65.51
2019-04-25T21:44:05.773Z,66.20
2019-04-25T21:46:37.832Z,65.83
2019-04-25T21:49:05.039Z,67.29
2019-04-25T21:51:32.438Z,65.40
2019-04-25T21:54:04.696Z,66.56
2019-04-25T21:56:31.653Z,64.98
2019-04-25T21:58:58.639Z,65.91
2019-04-25T22:01:33.329Z,65.95
2019-04-25T22:04:00.727Z,66.37
2019-04-25T22:06:27.805Z,66.45
2019-04-25T22:08:55.366Z,66.21
2019-04-25T22:11:25.070Z,68.22
2019-04-25T22:13:53.044Z,68.19
2019-04-25T22:16:20.730Z,66.29
2019-04-25T22:18:48.148Z,67.71
2019-04-25T22:21:16.744Z,67.96
2019-04-25T22:23:43.739Z,68.87
2019-04-25T22:26:10.512Z,68.39
2019-04-25T22:28:37.780Z,68.71
2019-04-25T22:31:10.183Z,68.85
2019-04-25T22:34:14.733Z,69.17
2019-04-25T22:36:42.032Z,70.42
2019-04-25T22:39:13.364Z,70.75
2019-04-25T22:41:46.558Z,69.50
2019-04-25T22:44:13.944Z,68.51
2019-04-25T22:46:41.384Z,70.42
2019-04-25T22:49:08.192Z,71.22
2019-04-25T22:51:34.884Z,69.72
2019-04-25T22:54:02.471Z,71.61
2019-04-25T22:56:30.286Z,71.64
2019-04-25T22:58:57.885Z,70.61
2019-04-25T23:01:44.552Z,70.70
2019-04-25T23:04:24.826Z,71.26
2019-04-25T23:06:53.153Z,71.51
2019-04-25T23:09:22.216Z,71.21
2019-04-25T23:11:51.082Z,71.48
2019-04-25T23:14:46.995Z,72.55
2019-04-25T23:17:17.169Z,71.57
2019-04-25T23:19:49.999Z,72.48
2019-04-25T23:22:41.251Z,72.82
2019-04-25T23:25:14.512Z,72.32
2019-04-25T23:28:06.502Z,73.60
2019-04-25T23:30:49.191Z,71.88
2019-04-25T23:33:15.961Z,73.78
2019-04-25T23:35:45.820Z,72.10
2019-04-25T23:38:14.712Z,71.41
2019-04-25T23:40:41.105Z,70.30
2019-04-25T23:43:08.090Z,70.28
2019-04-25T23:45:34.795Z,71.98
2019-04-25T23:48:01.513Z,68.79
2019-04-25T23:50:28.650Z,72.55
2019-04-25T23:52:55.472Z,70.02
2019-04-25T23:55:22.349Z,69.87
2019-04-25T23:57:49.126Z,66.91
